TimeAKST,TemperatureF,Dew PointF,Humidity,Sea Level PressureIn,VisibilityMPH,Wind Direction,Wind SpeedMPH,Gust SpeedMPH,PrecipitationIn,Events,Conditions,WindDirDegrees,DateUTC
12:16 AM,-34.6,-9999,N/A,29.34,4.0,NNE,8.1,-,N/A,,Overcast,20,2013-02-24 09:16:00
12:36 AM,-36.4,-9999,N/A,29.34,9.0,NNE,6.9,-,N/A,,Scattered Clouds,20,2013-02-24 09:36:00
12:56 AM,-36.4,-9999,N/A,29.34,10.0,North,5.8,-,N/A,,Partly Cloudy,10,2013-02-24 09:56:00
1:16 AM,-36.4,-9999,N/A,29.34,3.0,NNE,5.8,-,N/A,,Clear,20,2013-02-24 10:16:00
1:36 AM,-36.4,-9999,N/A,29.34,5.0,North,4.6,-,N/A,,Clear,10,2013-02-24 10:36:00
1:56 AM,-36.4,-9999,N/A,29.34,5.0,North,6.9,-,N/A,,Clear,10,2013-02-24 10:56:00
2:16 AM,-36.4,-9999,N/A,29.34,3.0,NNE,5.8,-,N/A,,Clear,20,2013-02-24 11:16:00
2:36 AM,-38.2,-9999,N/A,29.35,5.0,North,6.9,-,N/A,,Clear,10,2013-02-24 11:36:00
2:56 AM,-38.2,-9999,N/A,29.35,4.0,North,6.9,-,N/A,,Clear,10,2013-02-24 11:56:00
3:16 AM,-38.2,-9999,N/A,29.35,3.0,North,6.9,-,N/A,,Clear,10,2013-02-24 12:16:00
3:36 AM,-38.2,-9999,N/A,29.35,1.8,NNE,6.9,-,N/A,,Overcast,20,2013-02-24 12:36:00
3:56 AM,-38.2,-9999,N/A,29.35,5.0,North,4.6,-,N/A,,Scattered Clouds,10,2013-02-24 12:56:00
4:16 AM,-38.2,-9999,N/A,29.35,2.5,North,4.6,-,N/A,,Clear,10,2013-02-24 13:16:00
4:36 AM,-38.2,-9999,N/A,29.35,3.0,North,3.5,-,N/A,,Clear,10,2013-02-24 13:36:00
4:56 AM,-38.2,-9999,N/A,29.35,4.0,North,3.5,-,N/A,,Clear,360,2013-02-24 13:56:00
5:16 AM,-38.2,-9999,N/A,29.36,10.0,North,5.8,-,N/A,,Clear,360,2013-02-24 14:16:00
5:36 AM,-36.4,-9999,N/A,29.36,2.0,North,4.6,-,N/A,,Clear,360,2013-02-24 14:36:00
5:56 AM,-38.2,-9999,N/A,29.36,10.0,North,5.8,-,N/A,,Clear,10,2013-02-24 14:56:00
6:16 AM,-38.2,-9999,N/A,29.36,1.8,North,4.6,-,N/A,,Clear,360,2013-02-24 15:16:00
6:36 AM,-36.4,-9999,N/A,29.36,4.0,North,5.8,-,N/A,,Clear,360,2013-02-24 15:36:00
6:56 AM,-36.4,-9999,N/A,29.36,10.0,North,4.6,-,N/A,,Clear,10,2013-02-24 15:56:00
7:16 AM,-36.4,-9999,N/A,29.36,5.0,North,6.9,-,N/A,,Clear,10,2013-02-24 16:16:00
7:36 AM,-36.4,-9999,N/A,29.36,10.0,North,5.8,-,N/A,,Clear,10,2013-02-24 16:36:00
7:56 AM,-36.4,-9999,N/A,29.37,10.0,North,5.8,-,N/A,,Clear,10,2013-02-24 16:56:00
8:16 AM,-36.4,-9999,N/A,29.37,1.8,North,4.6,-,N/A,,Clear,10,2013-02-24 17:16:00
8:36 AM,-36.4,-9999,N/A,29.37,1.0,North,3.5,-,N/A,,Clear,360,2013-02-24 17:36:00
8:56 AM,-36.4,-9999,N/A,29.37,2.0,North,3.5,-,N/A,,Clear,10,2013-02-24 17:56:00
9:16 AM,-36.4,-9999,N/A,29.38,8.0,North,5.8,-,N/A,,Clear,10,2013-02-24 18:16:00
9:36 AM,-36.4,-9999,N/A,29.38,10.0,NNE,5.8,-,N/A,,Clear,20,2013-02-24 18:36:00
9:56 AM,-36.4,-9999,N/A,29.38,9.0,North,3.5,-,N/A,,Clear,10,2013-02-24 18:56:00
10:16 AM,-34.6,-9999,N/A,29.39,9.0,Calm,Calm,-,N/A,,Clear,0,2013-02-24 19:16:00
10:36 AM,-34.6,-9999,N/A,29.39,10.0,NNE,3.5,-,N/A,,Clear,20,2013-02-24 19:36:00
10:56 AM,-34.6,-9999,N/A,29.39,10.0,Calm,Calm,-,N/A,,Clear,0,2013-02-24 19:56:00
11:16 AM,-32.8,-9999,N/A,29.40,10.0,Calm,Calm,-,N/A,,Clear,0,2013-02-24 20:16:00
11:36 AM,-32.8,-9999,N/A,29.40,10.0,Calm,Calm,-,N/A,,Clear,0,2013-02-24 20:36:00
11:56 AM,-31.0,-9999,N/A,29.41,10.0,North,3.5,-,N/A,,Clear,10,2013-02-24 20:56:00
12:16 PM,-29.2,-9999,N/A,29.41,10.0,Calm,Calm,-,N/A,,Clear,0,2013-02-24 21:16:00
12:36 PM,-27.4,-9999,N/A,29.42,10.0,NNE,4.6,-,N/A,,Clear,30,2013-02-24 21:36:00
12:56 PM,-29.2,-9999,N/A,29.42,10.0,NNE,4.6,-,N/A,,Clear,20,2013-02-24 21:56:00
1:16 PM,-31.0,-9999,N/A,29.42,10.0,North,4.6,-,N/A,,Clear,10,2013-02-24 22:16:00
1:36 PM,-29.2,-9999,N/A,29.42,10.0,NNE,3.5,-,N/A,,Clear,20,2013-02-24 22:36:00
1:56 PM,-27.4,-9999,N/A,29.42,10.0,Calm,Calm,-,N/A,,Clear,0,2013-02-24 22:56:00
2:16 PM,-23.8,-27.4,83,29.43,10.0,Calm,Calm,-,N/A,,Clear,0,2013-02-24 23:16:00
2:36 PM,-22.0,-9999,N/A,29.43,10.0,Calm,Calm,-,N/A,,Clear,0,2013-02-24 23:36:00
2:56 PM,-13.0,-14.8,92,29.43,10.0,Calm,Calm,-,N/A,,Clear,0,2013-02-24 23:56:00
3:16 PM,-11.2,-23.8,54,29.44,10.0,Calm,Calm,-,N/A,,Clear,0,2013-02-25 00:16:00
3:36 PM,-9.4,-18.4,65,29.44,10.0,Calm,Calm,-,N/A,,Clear,0,2013-02-25 00:36:00
3:56 PM,-9.4,-18.4,65,29.44,10.0,SW,3.5,-,N/A,,Clear,230,2013-02-25 00:56:00
4:16 PM,-7.6,-16.6,65,29.44,10.0,Calm,Calm,-,N/A,,Clear,0,2013-02-25 01:16:00
4:36 PM,-7.6,-18.4,59,29.45,10.0,SW,4.6,-,N/A,,Clear,220,2013-02-25 01:36:00
4:56 PM,-7.6,-18.4,59,29.45,10.0,SSW,9.2,-,N/A,,Clear,200,2013-02-25 01:56:00
5:16 PM,-7.6,-18.4,59,29.45,10.0,South,11.5,-,N/A,,Clear,190,2013-02-25 02:16:00
5:36 PM,-7.6,-16.6,65,29.46,10.0,SSW,8.1,-,N/A,,Partly Cloudy,200,2013-02-25 02:36:00
5:56 PM,-5.8,-16.6,60,29.46,10.0,South,10.4,-,N/A,,Mostly Cloudy,180,2013-02-25 02:56:00
6:16 PM,-5.8,-14.8,65,29.47,10.0,SSW,6.9,-,N/A,,Overcast,200,2013-02-25 03:16:00
6:36 PM,-4.0,-14.8,60,29.47,10.0,South,11.5,-,N/A,,Mostly Cloudy,180,2013-02-25 03:36:00
6:56 PM,-5.8,-20.2,50,29.48,10.0,South,8.1,-,N/A,,Clear,180,2013-02-25 03:56:00
7:16 PM,-5.8,-18.4,55,29.48,10.0,Calm,Calm,-,N/A,,Clear,0,2013-02-25 04:16:00
7:36 PM,-7.6,-18.4,59,29.48,10.0,SSW,8.1,-,N/A,,Clear,200,2013-02-25 04:36:00
7:56 PM,-9.4,-23.8,49,29.48,10.0,SSW,6.9,-,N/A,,Clear,200,2013-02-25 04:56:00
8:16 PM,-9.4,-20.2,59,29.49,10.0,South,8.1,-,N/A,,Clear,190,2013-02-25 05:16:00
8:36 PM,-7.6,-18.4,59,29.50,10.0,SSW,6.9,-,N/A,,Clear,210,2013-02-25 05:36:00
8:56 PM,-7.6,-18.4,59,29.50,10.0,SW,8.1,-,N/A,,Partly Cloudy,220,2013-02-25 05:56:00
9:16 PM,-5.8,-16.6,60,29.50,10.0,South,12.7,-,N/A,,Mostly Cloudy,190,2013-02-25 06:16:00
9:36 PM,-2.2,-11.2,66,29.50,10.0,South,15.0,-,N/A,,Overcast,180,2013-02-25 06:36:00
9:56 PM,-2.2,-14.8,55,29.50,10.0,South,12.7,-,N/A,,Overcast,180,2013-02-25 06:56:00
10:16 PM,-2.2,-14.8,55,29.50,10.0,South,13.8,-,N/A,,Overcast,170,2013-02-25 07:16:00
10:36 PM,-0.4,-9.4,66,29.51,10.0,South,13.8,-,N/A,,Overcast,190,2013-02-25 07:36:00
10:56 PM,-2.2,-14.8,55,29.51,10.0,South,12.7,-,N/A,,Overcast,190,2013-02-25 07:56:00
11:16 PM,-0.4,-9.4,66,29.52,10.0,South,13.8,-,N/A,,Overcast,190,2013-02-25 08:16:00
11:36 PM,-0.4,-13.0,55,29.52,10.0,South,16.1,-,N/A,,Overcast,180,2013-02-25 08:36:00
11:56 PM,-0.4,-14.8,51,29.53,10.0,South,15.0,-,N/A,,Overcast,170,2013-02-25 08:56:00